Time;durP1;ratioP1;P1;durP2;ratioP2;P2;SDS_P1;SDS_P2;PMS_P1;PMS_P2;Temp;Humidity;BMP_temperature;BMP_pressure;BME280_temperature;BME280_humidity;BME280_pressure;Samples;Min_cycle;Max_cycle;Signal;HPM_P1;HPM_P2
2022/06/18 00:00:48;;;;;;;37.20;6.43;;;;;;;26.61;70.32;101599.47;7391873;19;20014;-41
2022/06/18 00:03:17;;;;;;;35.05;6.75;;;;;;;26.52;72.05;101597.69;7393867;19;20016;-41
2022/06/18 00:05:51;;;;;;;8.18;4.88;;;;;;;26.63;70.29;101594.78;7394614;19;20015;-41
2022/06/18 00:08:23;;;;;;;7.47;4.65;;;;;;;26.75;68.23;101595.41;7394060;19;20021;-42
2022/06/18 00:10:56;;;;;;;5.70;4.30;;;;;;;26.63;69.71;101602.84;7398901;19;20018;-41
2022/06/18 00:13:40;;;;;;;8.55;5.55;;;;;;;26.49;70.67;101589.94;7401092;19;20680;-41
2022/06/18 00:16:13;;;;;;;6.63;4.78;;;;;;;26.28;73.88;101587.56;7405068;19;20014;-41
2022/06/18 00:18:42;;;;;;;7.35;5.30;;;;;;;26.35;71.98;101594.88;7409492;19;20017;-42
2022/06/18 00:21:18;;;;;;;7.05;5.13;;;;;;;26.62;70.52;101597.63;7408831;19;20007;-41
2022/06/18 00:23:47;;;;;;;9.23;5.57;;;;;;;26.72;70.05;101603.78;7406594;19;20045;-41
2022/06/18 00:26:17;;;;;;;6.25;5.10;;;;;;;26.48;69.60;101599.00;7402901;19;20025;-42
2022/06/18 00:28:47;;;;;;;6.97;5.30;;;;;;;26.31;70.94;101592.66;7401983;19;20011;-41
2022/06/18 00:31:16;;;;;;;7.53;4.65;;;;;;;26.43;72.20;101594.09;7402550;19;20017;-42
2022/06/18 00:33:45;;;;;;;8.43;5.38;;;;;;;26.42;71.98;101593.25;7400597;19;20025;-41
2022/06/18 00:36:19;;;;;;;8.75;5.10;;;;;;;26.39;73.04;101598.06;7409924;19;20006;-43
2022/06/18 00:38:50;;;;;;;9.43;5.05;;;;;;;26.42;73.30;101584.31;7410982;19;20011;-41
2022/06/18 00:41:22;;;;;;;8.52;5.25;;;;;;;26.59;72.88;101591.56;7410943;19;20606;-41
2022/06/18 00:43:58;;;;;;;10.60;5.10;;;;;;;26.49;74.43;101595.31;7409971;19;20023;-41
2022/06/18 00:46:32;;;;;;;7.95;5.30;;;;;;;26.54;72.31;101588.47;7404566;19;20028;-41
2022/06/18 00:49:06;;;;;;;7.97;5.40;;;;;;;26.55;71.90;101594.69;7401569;19;20018;-41
2022/06/18 00:51:43;;;;;;;9.20;5.30;;;;;;;26.51;71.47;101588.78;7402521;19;20021;-41
2022/06/18 00:54:20;;;;;;;7.70;5.93;;;;;;;26.41;71.29;101588.03;7401147;19;20015;-41
2022/06/18 00:56:54;;;;;;;9.02;5.22;;;;;;;26.32;72.82;101583.56;7402197;19;20015;-42
2022/06/18 00:59:31;;;;;;;6.32;5.15;;;;;;;26.24;72.91;101579.78;7399894;19;20017;-42
2022/06/18 01:02:02;;;;;;;7.43;5.55;;;;;;;26.22;73.99;101573.75;7400084;19;20029;-41
2022/06/18 01:04:34;;;;;;;9.15;5.28;;;;;;;26.39;71.84;101573.88;7398267;19;20462;-42
2022/06/18 01:07:09;;;;;;;11.20;6.00;;;;;;;26.46;73.94;101568.75;7400680;19;20010;-42
2022/06/18 01:09:38;;;;;;;9.13;5.55;;;;;;;26.53;72.88;101572.50;7401097;19;20019;-42
2022/06/18 01:12:09;;;;;;;8.55;5.57;;;;;;;26.24;73.54;101574.44;7399933;19;20664;-42
2022/06/18 01:14:39;;;;;;;7.45;6.07;;;;;;;26.22;74.48;101573.75;7400240;19;20026;-42
2022/06/18 01:17:08;;;;;;;9.48;6.38;;;;;;;26.38;74.56;101567.69;7399961;19;20014;-42
2022/06/18 01:19:41;;;;;;;10.85;6.32;;;;;;;26.25;74.78;101570.75;7397766;19;20011;-42
2022/06/18 01:22:27;;;;;;;9.75;6.15;;;;;;;26.20;75.94;101561.47;7397998;19;20119;-42
2022/06/18 01:25:01;;;;;;;8.27;6.10;;;;;;;26.11;77.09;101557.00;7394831;19;20018;-43
2022/06/18 01:27:30;;;;;;;9.67;6.60;;;;;;;25.99;77.31;101554.50;7397230;19;20103;-42
2022/06/18 01:30:00;;;;;;;9.73;6.70;;;;;;;26.22;77.83;101557.63;7394966;19;20043;-42
2022/06/18 01:32:34;;;;;;;7.53;6.03;;;;;;;25.90;79.64;101550.91;7395569;19;20023;-42
2022/06/18 01:35:05;;;;;;;11.30;6.55;;;;;;;25.83;80.44;101549.78;7393578;19;20484;-43
2022/06/18 01:37:37;;;;;;;9.43;6.18;;;;;;;26.10;78.58;101544.56;7396365;19;20753;-42
2022/06/18 01:40:28;;;;;;;11.00;6.43;;;;;;;25.65;81.95;101547.06;7395835;19;20022;-42
2022/06/18 01:43:02;;;;;;;12.25;7.10;;;;;;;25.90;81.87;101548.22;7397809;19;20015;-42
2022/06/18 01:45:35;;;;;;;11.35;6.63;;;;;;;26.26;80.58;101542.03;7396019;19;20029;-42
2022/06/18 01:48:08;;;;;;;12.68;6.80;;;;;;;26.19;80.93;101549.00;7397533;19;20010;-42
2022/06/18 01:50:44;;;;;;;9.88;7.05;;;;;;;26.18;80.88;101544.66;7397450;19;20014;-44
2022/06/18 01:53:18;;;;;;;11.75;7.00;;;;;;;25.93;83.12;101543.53;7394078;19;20023;-42
2022/06/18 01:55:54;;;;;;;10.65;7.22;;;;;;;26.09;82.10;101541.03;7396938;19;20795;-42
2022/06/18 01:58:31;;;;;;;9.45;6.95;;;;;;;26.04;79.47;101543.34;7396748;19;20015;-43
2022/06/18 02:01:04;;;;;;;7.47;6.72;;;;;;;25.79;80.64;101537.69;7394738;19;20052;-42
2022/06/18 02:03:33;;;;;;;8.43;6.55;;;;;;;25.34;82.89;101533.91;7394946;19;20021;-42
2022/06/18 02:06:03;;;;;;;10.98;7.28;;;;;;;25.53;83.69;101533.00;7397223;19;20041;-42
2022/06/18 02:08:32;;;;;;;7.00;6.22;;;;;;;25.25;83.13;101534.78;7396315;19;20014;-42
2022/06/18 02:11:06;;;;;;;8.73;6.60;;;;;;;25.46;82.70;101534.59;7396257;19;20022;-41
2022/06/18 02:13:40;;;;;;;9.32;6.47;;;;;;;25.48;82.15;101524.56;7393301;19;20026;-41
2022/06/18 02:16:15;;;;;;;9.85;7.15;;;;;;;25.32;83.39;101527.03;7395475;19;20097;-43
2022/06/18 02:18:46;;;;;;;9.18;7.40;;;;;;;25.34;82.78;101528.56;7395649;19;20019;-41
2022/06/18 02:21:21;;;;;;;9.68;6.45;;;;;;;25.41;83.12;101523.47;7394777;19;20077;-41
2022/06/18 02:23:53;;;;;;;11.55;7.03;;;;;;;25.06;85.19;101527.66;7393759;19;20026;-41
2022/06/18 02:26:29;;;;;;;8.70;6.90;;;;;;;24.83;86.89;101522.63;7396634;19;20026;-41
2022/06/18 02:29:00;;;;;;;9.70;7.47;;;;;;;25.12;85.28;101524.38;7395539;19;20098;-41
2022/06/18 02:31:33;;;;;;;7.85;6.57;;;;;;;25.13;85.40;101522.53;7396430;19;20025;-41
2022/06/18 02:34:06;;;;;;;9.48;7.07;;;;;;;25.23;84.66;101517.97;7392484;19;20014;-41
2022/06/18 02:36:36;;;;;;;;;;;;;;;25.22;83.79;101533.25;7397307;19;20022;-41
2022/06/18 02:39:17;;;;;;;8.10;6.88;;;;;;;25.26;83.71;101532.94;7394126;19;19913;-41
2022/06/18 02:41:49;;;;;;;8.35;7.40;;;;;;;25.15;84.61;101533.97;7395012;19;20124;-42
2022/06/18 02:44:18;;;;;;;11.45;7.05;;;;;;;25.25;84.23;101533.97;7394442;19;20022;-41
2022/06/18 02:46:50;;;;;;;10.80;7.38;;;;;;;25.34;83.92;101544.66;7396294;19;20010;-41
2022/06/18 02:49:21;;;;;;;9.35;7.80;;;;;;;24.69;88.87;101531.97;7393391;19;20025;-40
2022/06/18 02:51:51;;;;;;;11.05;8.02;;;;;;;25.07;86.57;101532.00;7393892;19;20021;-41
2022/06/18 02:54:21;;;;;;;12.27;8.10;;;;;;;24.84;88.69;101536.88;7392231;19;20014;-41
2022/06/18 02:56:54;;;;;;;11.13;8.50;;;;;;;25.11;87.40;101530.72;7393264;19;20030;-41
2022/06/18 02:59:23;;;;;;;13.77;8.50;;;;;;;25.16;86.49;101535.66;7393189;19;20034;-41
2022/06/18 03:01:52;;;;;;;9.93;8.20;;;;;;;25.02;87.19;101545.03;7395775;19;20018;-41
2022/06/18 03:04:21;;;;;;;10.13;8.65;;;;;;;25.10;86.95;101541.63;7392604;19;20015;-41
2022/06/18 03:06:50;;;;;;;9.48;8.48;;;;;;;24.86;87.95;101538.44;7394233;19;20476;-40
2022/06/18 03:09:19;;;;;;;10.93;9.00;;;;;;;24.99;86.98;101545.31;7392063;19;20018;-40
2022/06/18 03:14:33;;;;;;;14.23;10.30;;;;;;;25.12;86.21;101548.53;7392930;19;20014;-40
2022/06/18 03:17:04;;;;;;;12.07;9.48;;;;;;;25.06;86.35;101543.75;7392365;19;20022;-41
2022/06/18 03:19:39;;;;;;;14.02;10.00;;;;;;;24.86;87.94;101545.63;7393089;19;20014;-41
2022/06/18 03:22:13;;;;;;;10.70;9.60;;;;;;;25.02;87.55;101547.72;7391736;19;20015;-41
2022/06/18 03:24:43;;;;;;;11.82;9.95;;;;;;;24.95;90.33;101549.28;7390567;19;20026;-40
2022/06/18 03:27:12;;;;;;;12.95;9.93;;;;;;;24.64;90.70;101544.94;7392579;19;20015;-41
2022/06/18 03:29:49;;;;;;;16.07;10.17;;;;;;;24.82;90.34;101545.06;7392217;19;20023;-41
2022/06/18 03:32:18;;;;;;;10.98;9.85;;;;;;;24.79;90.53;101542.69;7392944;19;20014;-41
2022/06/18 03:34:47;;;;;;;13.95;10.07;;;;;;;24.47;92.21;101543.81;7392518;19;20026;-41
2022/06/18 03:37:18;;;;;;;12.48;10.73;;;;;;;24.62;92.91;101541.56;7393595;19;20107;-41
2022/06/18 03:39:47;;;;;;;20.70;11.20;;;;;;;24.81;89.97;101550.56;7392521;19;20026;-41
2022/06/18 03:42:17;;;;;;;13.18;11.02;;;;;;;24.82;91.18;101549.59;7393524;19;20049;-41
2022/06/18 03:44:49;;;;;;;13.07;11.07;;;;;;;24.75;91.39;101546.63;7392946;19;20022;-41
2022/06/18 03:47:18;;;;;;;13.38;11.85;;;;;;;24.85;90.53;101551.97;7400627;19;20011;-41
2022/06/18 03:49:47;;;;;;;20.73;10.95;;;;;;;24.64;91.25;101546.78;7399693;19;20025;-41
2022/06/18 03:52:16;;;;;;;12.95;11.02;;;;;;;24.45;93.97;101548.44;7401137;19;20022;-41
2022/06/18 03:54:48;;;;;;;14.43;10.27;;;;;;;24.58;92.96;101550.84;7398311;19;20014;-41
2022/06/18 03:57:19;;;;;;;13.23;11.13;;;;;;;24.59;92.90;101549.03;7399772;19;20006;-41
2022/06/18 03:59:52;;;;;;;13.27;11.40;;;;;;;24.81;92.38;101550.56;7399135;19;20014;-42
2022/06/18 04:02:21;;;;;;;14.00;12.02;;;;;;;24.91;91.20;101540.66;7401042;19;20030;-41
2022/06/18 04:04:50;;;;;;;16.33;12.23;;;;;;;24.62;93.25;101540.72;7398012;19;20015;-41
2022/06/18 04:07:25;;;;;;;16.95;11.13;;;;;;;24.54;94.44;101538.72;7400120;19;20018;-40
2022/06/18 04:10:19;;;;;;;17.23;12.75;;;;;;;24.80;92.45;101547.06;7401322;19;20018;-41
2022/06/18 04:12:50;;;;;;;13.68;11.75;;;;;;;24.60;93.46;101538.19;7399807;19;20017;-41
2022/06/18 04:15:32;;;;;;;14.30;11.52;;;;;;;24.65;93.79;101540.44;7400204;19;20011;-41
2022/06/18 04:18:06;;;;;;;15.85;12.73;;;;;;;24.75;94.18;101543.94;7400105;19;20053;-41
2022/06/18 04:20:38;;;;;;;18.98;13.45;;;;;;;24.69;94.75;101542.69;7398869;19;20049;-41
2022/06/18 04:23:11;;;;;;;14.65;12.55;;;;;;;24.74;93.57;101552.97;7399667;19;20781;-41
2022/06/18 04:25:44;;;;;;;15.70;13.32;;;;;;;24.56;94.67;101543.94;7400088;19;20018;-41
2022/06/18 04:28:14;;;;;;;16.55;13.40;;;;;;;24.75;94.06;101549.31;7399397;19;20520;-41
2022/06/18 04:30:50;;;;;;;18.42;14.50;;;;;;;24.81;92.88;101559.44;7399666;19;20027;-42
2022/06/18 04:33:35;;;;;;;17.33;13.60;;;;;;;24.87;91.71;101555.34;7397716;19;20033;-40
2022/06/18 04:36:39;;;;;;;16.02;13.82;;;;;;;24.92;91.42;101555.78;7398188;19;20349;-40
2022/06/18 04:39:21;;;;;;;18.42;13.20;;;;;;;24.96;90.43;101564.34;7398337;19;20017;-41
2022/06/18 04:42:07;;;;;;;19.17;15.80;;;;;;;24.86;90.38;101565.22;7399147;19;20021;-40
2022/06/18 04:44:37;;;;;;;16.75;14.98;;;;;;;24.93;90.47;101561.97;7397176;19;20019;-40
2022/06/18 04:47:14;;;;;;;17.95;14.30;;;;;;;24.50;92.68;101559.59;7398672;19;20074;-40
2022/06/18 04:49:43;;;;;;;20.23;14.93;;;;;;;24.64;92.29;101558.34;7398580;19;20074;-40
2022/06/18 04:52:15;;;;;;;23.25;15.27;;;;;;;24.67;93.46;101562.56;7399956;19;20014;-41
2022/06/18 04:54:53;;;;;;;17.38;15.57;;;;;;;24.62;92.49;101556.81;7405304;19;20020;-40
2022/06/18 04:57:24;;;;;;;17.10;14.90;;;;;;;24.60;93.28;101561.44;7412066;19;20022;-40
2022/06/18 04:59:53;;;;;;;21.52;18.17;;;;;;;24.84;92.49;101561.84;7412908;19;20017;-41
2022/06/18 05:02:29;;;;;;;18.13;16.17;;;;;;;24.67;92.28;101559.88;7412926;19;20023;-40
2022/06/18 05:05:13;;;;;;;26.30;18.45;;;;;;;24.55;95.59;101566.38;7407483;19;20423;-41
2022/06/18 05:08:18;;;;;;;23.25;18.10;;;;;;;24.29;96.27;101559.72;7407714;19;20015;-40
2022/06/18 05:11:10;;;;;;;19.08;16.50;;;;;;;24.58;95.67;101560.72;7412752;19;20011;-40
2022/06/18 05:14:03;;;;;;;19.15;16.58;;;;;;;24.77;94.09;101559.88;7410365;19;20124;-42
2022/06/18 05:16:35;;;;;;;19.50;17.48;;;;;;;24.25;98.95;101549.44;7411753;19;20551;-43
2022/06/18 05:19:06;;;;;;;20.55;17.50;;;;;;;24.78;95.43;101554.38;7401286;19;20456;-39
2022/06/18 05:21:35;;;;;;;22.40;17.50;;;;;;;24.88;94.98;101557.88;7408665;19;20014;-40
2022/06/18 05:24:04;;;;;;;24.65;18.83;;;;;;;24.89;94.69;101561.44;7400707;19;20314;-40
2022/06/18 05:26:33;;;;;;;21.70;19.55;;;;;;;24.69;97.63;101549.88;7398079;19;20058;-41
2022/06/18 05:29:02;;;;;;;20.90;18.20;;;;;;;24.18;100.00;101554.50;7398183;19;20019;-41
2022/06/18 05:31:32;;;;;;;21.75;17.75;;;;;;;24.62;97.83;101557.66;7398935;19;20487;-41
2022/06/18 05:34:01;;;;;;;19.35;16.83;;;;;;;24.48;98.26;101542.81;7397741;19;20464;-41
2022/06/18 05:36:33;;;;;;;21.15;18.20;;;;;;;24.22;100.00;101541.69;7399508;19;20011;-42
2022/06/18 05:39:03;;;;;;;24.20;18.02;;;;;;;24.65;100.00;101545.81;7397800;19;20034;-41
2022/06/18 05:41:32;;;;;;;19.67;15.77;;;;;;;24.50;100.00;101548.00;7398594;19;20014;-41
2022/06/18 05:44:02;;;;;;;21.70;15.60;;;;;;;25.04;97.40;101554.63;7398214;19;20019;-41
2022/06/18 05:46:32;;;;;;;22.92;15.93;;;;;;;24.91;98.18;101547.88;7399639;19;20018;-40
2022/06/18 05:49:01;;;;;;;21.15;17.23;;;;;;;25.14;96.21;101551.91;7399701;19;20488;-40
2022/06/18 05:51:33;;;;;;;18.77;15.50;;;;;;;24.98;96.33;101551.66;7398645;19;20022;-40
2022/06/18 05:54:03;;;;;;;;;;;;;;;24.72;99.44;101554.13;7399645;19;20011;-40
2022/06/18 05:56:46;;;;;;;23.45;15.90;;;;;;;24.69;98.88;101540.00;7406954;19;19953;-41
2022/06/18 05:59:36;;;;;;;17.65;14.85;;;;;;;24.09;100.00;101545.47;7406185;19;20019;-40
2022/06/18 06:02:09;;;;;;;20.02;15.10;;;;;;;24.85;100.00;101552.81;7405370;19;20025;-41
2022/06/18 06:04:39;;;;;;;19.92;15.25;;;;;;;25.12;95.57;101558.41;7405034;19;20034;-40
2022/06/18 06:07:11;;;;;;;18.38;15.07;;;;;;;25.00;98.00;101555.03;7407393;19;20019;-40
2022/06/18 06:12:22;;;;;;;16.50;14.05;;;;;;;24.86;97.08;101553.69;7405026;19;20015;-41
2022/06/18 06:14:53;;;;;;;19.88;14.00;;;;;;;24.50;100.00;101556.06;7411160;19;20043;-40
2022/06/18 06:17:25;;;;;;;21.52;14.13;;;;;;;24.52;100.00;101554.09;7413086;19;20039;-40
2022/06/18 06:20:00;;;;;;;17.40;13.80;;;;;;;24.35;100.00;101551.13;7413726;19;20017;-41
2022/06/18 06:22:32;;;;;;;22.73;14.60;;;;;;;24.57;100.00;101556.34;7415440;19;20014;-42
2022/06/18 06:25:01;;;;;;;18.15;13.93;;;;;;;24.85;100.00;101557.34;7401804;19;20039;-42
2022/06/18 06:27:30;;;;;;;22.50;13.90;;;;;;;25.04;97.82;101561.81;7399985;19;20014;-42
2022/06/18 06:29:58;;;;;;;26.13;14.95;;;;;;;25.29;98.13;101559.47;7399757;19;20014;-41
2022/06/18 06:32:27;;;;;;;21.52;14.93;;;;;;;25.30;95.92;101562.00;7406121;19;20017;-41
2022/06/18 06:34:56;;;;;;;20.08;15.05;;;;;;;25.19;95.30;101554.16;7409899;19;20022;-41
2022/06/18 06:37:25;;;;;;;20.40;15.10;;;;;;;24.53;100.00;101562.00;7416586;19;20014;-40
2022/06/18 06:39:56;;;;;;;22.05;15.63;;;;;;;24.75;100.00;101560.03;7411321;19;20006;-42
2022/06/18 06:42:25;;;;;;;19.67;14.23;;;;;;;24.92;100.00;101565.66;7413213;19;20018;-42
2022/06/18 06:44:58;;;;;;;26.88;15.02;;;;;;;25.33;97.55;101569.81;7399364;19;20049;-41
2022/06/18 06:47:26;;;;;;;18.42;14.63;;;;;;;25.20;100.00;101569.25;7398146;19;20082;-41
2022/06/18 06:49:55;;;;;;;19.13;14.43;;;;;;;25.55;97.45;101573.94;7396073;19;20060;-42
2022/06/18 06:52:24;;;;;;;19.55;15.63;;;;;;;25.31;99.97;101576.28;7397033;19;20353;-41
2022/06/18 06:57:21;;;;;;;22.10;15.02;;;;;;;25.69;98.11;101577.13;7395096;19;20015;-41
2022/06/18 06:57:44;;;;;;;22.88;15.07;;;;;;;25.46;99.60;101569.47;7398622;19;20019;-43
2022/06/18 07:00:14;;;;;;;18.65;13.63;;;;;;;25.79;95.56;101577.94;7397554;19;20133;-42
2022/06/18 07:02:43;;;;;;;23.98;13.52;;;;;;;25.72;97.42;101577.69;7397191;19;20018;-42
2022/06/18 07:05:15;;;;;;;21.98;14.45;;;;;;;25.83;97.55;101582.00;7396721;19;20826;-42
2022/06/18 07:07:44;;;;;;;22.80;15.97;;;;;;;25.87;94.44;101585.25;7399270;19;20515;-41
2022/06/18 07:10:13;;;;;;;21.23;14.60;;;;;;;26.23;93.30;101588.88;7395966;19;20426;-41
2022/06/18 07:12:42;;;;;;;17.75;14.60;;;;;;;26.42;92.50;101587.88;7396667;19;20019;-42
2022/06/18 07:15:15;;;;;;;22.00;14.85;;;;;;;25.66;97.24;101589.03;7395354;19;20017;-42
2022/06/18 07:17:44;;;;;;;26.83;16.75;;;;;;;25.71;97.64;101592.09;7397086;19;20018;-41
2022/06/18 07:20:17;;;;;;;23.42;15.40;;;;;;;25.27;100.00;101580.25;7396877;19;20014;-41
2022/06/18 07:22:46;;;;;;;28.02;14.98;;;;;;;25.68;96.33;101583.50;7401670;19;20039;-40
2022/06/18 07:25:17;;;;;;;21.77;16.92;;;;;;;25.65;97.39;101581.97;7398489;19;20026;-41
2022/06/18 07:27:46;;;;;;;23.17;15.48;;;;;;;25.75;99.24;101584.59;7395501;19;20022;-41
2022/06/18 07:30:18;;;;;;;23.45;14.65;;;;;;;25.65;98.48;101583.81;7395110;19;20025;-41
2022/06/18 07:32:48;;;;;;;20.67;14.65;;;;;;;25.78;98.75;101580.78;7395983;19;20050;-41
2022/06/18 07:35:21;;;;;;;23.85;15.80;;;;;;;25.84;97.58;101582.88;7394341;19;20014;-41
2022/06/18 07:37:53;;;;;;;21.75;14.05;;;;;;;25.91;100.00;101586.63;7396440;19;20018;-41
2022/06/18 07:40:23;;;;;;;21.73;14.37;;;;;;;25.90;97.87;101585.81;7394733;19;20093;-41
2022/06/18 07:42:55;;;;;;;20.33;14.52;;;;;;;25.80;100.00;101592.22;7394813;19;20014;-41
2022/06/18 07:45:28;;;;;;;17.52;14.75;;;;;;;25.97;100.00;101587.88;7395705;19;20337;-40
2022/06/18 07:47:57;;;;;;;23.52;14.80;;;;;;;26.17;98.10;101589.47;7395476;19;20011;-42
2022/06/18 07:50:26;;;;;;;21.92;14.13;;;;;;;26.15;95.66;101588.78;7394675;19;20079;-42
2022/06/18 07:52:55;;;;;;;15.57;11.15;;;;;;;26.35;92.36;101592.19;7395074;19;20480;-42
2022/06/18 07:55:27;;;;;;;20.67;12.52;;;;;;;26.28;94.06;101584.88;7391586;19;20495;-42
2022/06/18 07:57:55;;;;;;;25.10;12.82;;;;;;;26.18;95.89;101590.34;7394749;19;20115;-42
2022/06/18 08:00:27;;;;;;;19.85;13.38;;;;;;;26.09;98.24;101584.00;7390502;19;20022;-41
2022/06/18 08:02:56;;;;;;;28.35;12.93;;;;;;;26.32;97.20;101581.75;7394025;19;20464;-41
2022/06/18 08:05:27;;;;;;;21.73;11.90;;;;;;;26.99;94.07;101580.47;7394658;19;20022;-41
2022/06/18 08:07:56;;;;;;;16.67;11.70;;;;;;;26.88;91.23;101582.41;7393598;19;20015;-41
2022/06/18 08:10:25;;;;;;;17.60;11.00;;;;;;;27.22;90.19;101583.47;7393427;19;20018;-41
2022/06/18 08:12:54;;;;;;;16.85;10.82;;;;;;;26.94;89.38;101584.47;7393711;19;20018;-41
2022/06/18 08:15:23;;;;;;;15.70;10.70;;;;;;;26.51;94.17;101569.16;7392324;19;20007;-41
2022/06/18 08:17:55;;;;;;;21.38;11.20;;;;;;;27.13;91.35;101573.66;7393576;19;20022;-43
2022/06/18 08:20:24;;;;;;;19.45;12.30;;;;;;;27.06;89.94;101568.06;7394884;19;20733;-42
2022/06/18 08:22:57;;;;;;;20.48;11.85;;;;;;;26.82;92.49;101566.88;7397056;19;20010;-42
2022/06/18 08:25:29;;;;;;;15.35;10.52;;;;;;;26.91;92.29;101567.81;7395467;19;20098;-42
2022/06/18 08:28:00;;;;;;;20.33;10.82;;;;;;;27.18;90.83;101568.63;7393278;19;20025;-42
2022/06/18 08:30:30;;;;;;;28.42;10.50;;;;;;;27.24;91.97;101571.53;7392440;19;20018;-42
2022/06/18 08:33:01;;;;;;;13.98;9.77;;;;;;;26.92;92.32;101573.03;7399730;19;20018;-42
2022/06/18 08:35:31;;;;;;;18.55;10.30;;;;;;;27.03;93.05;101571.91;7398242;19;20014;-42
2022/06/18 08:38:00;;;;;;;18.15;9.55;;;;;;;27.49;89.35;101578.94;7400406;19;20018;-46
2022/06/18 08:40:45;;;;;;;19.65;9.57;;;;;;;27.62;89.43;101569.41;7400084;19;20007;-42
2022/06/18 08:43:37;;;;;;;16.83;10.20;;;;;;;27.36;89.39;101569.44;7398796;19;20068;-42
2022/06/18 08:46:14;;;;;;;17.63;9.25;;;;;;;27.39;88.12;101570.97;7399726;19;20078;-42
2022/06/18 08:49:04;;;;;;;16.92;10.80;;;;;;;27.17;89.32;101575.03;7400576;19;20043;-42
2022/06/18 08:51:41;;;;;;;14.05;9.20;;;;;;;27.07;91.96;101573.28;7399928;19;20010;-42
2022/06/18 08:54:26;;;;;;;25.70;10.25;;;;;;;27.44;89.70;101571.34;7399266;19;20014;-42
2022/06/18 08:57:01;;;;;;;21.35;10.00;;;;;;;27.42;90.28;101576.03;7399873;19;20498;-44
2022/06/18 08:59:44;;;;;;;14.40;9.32;;;;;;;27.57;90.78;101577.13;7400408;19;20010;-42
2022/06/18 09:02:23;;;;;;;15.02;9.82;;;;;;;27.30;90.13;101570.06;7397995;19;20476;-41
2022/06/18 09:05:08;;;;;;;15.10;8.85;;;;;;;27.86;89.05;101575.88;7398492;19;20021;-42
2022/06/18 09:07:58;;;;;;;13.15;8.18;;;;;;;27.79;89.15;101566.78;7400856;19;20368;-42
2022/06/18 09:10:41;;;;;;;15.73;8.50;;;;;;;28.21;84.33;101562.34;7399554;19;20014;-42
2022/06/18 09:13:14;;;;;;;14.50;8.00;;;;;;;28.49;82.26;101562.88;7400037;19;20570;-43
2022/06/18 09:15:49;;;;;;;14.85;8.70;;;;;;;28.12;83.72;101561.50;7398493;19;20022;-42
2022/06/18 09:18:25;;;;;;;14.20;7.40;;;;;;;28.45;83.41;101566.91;7399172;19;20025;-42
2022/06/18 09:21:00;;;;;;;13.60;8.65;;;;;;;28.56;83.80;101563.06;7399920;19;20395;-43
2022/06/18 09:23:32;;;;;;;15.13;8.18;;;;;;;28.74;82.18;101549.41;7399409;19;20014;-43
2022/06/18 09:26:07;;;;;;;15.68;8.70;;;;;;;28.81;82.11;101548.59;7399855;19;20025;-44
2022/06/18 09:28:41;;;;;;;11.93;7.35;;;;;;;29.22;79.73;101550.34;7399627;19;20570;-42
2022/06/18 09:31:15;;;;;;;12.10;7.70;;;;;;;28.61;77.52;101553.50;7399237;19;20015;-44
2022/06/18 09:33:48;;;;;;;13.07;7.28;;;;;;;29.00;77.80;101555.44;7398564;19;20022;-43
2022/06/18 09:36:24;;;;;;;18.17;8.00;;;;;;;28.66;71.29;101547.56;7396805;19;20023;-45
2022/06/18 09:38:59;;;;;;;14.80;7.68;;;;;;;28.37;76.61;101545.34;7398980;19;20433;-43
2022/06/18 09:41:33;;;;;;;17.92;8.70;;;;;;;28.96;80.58;101548.72;7399203;19;20507;-43
2022/06/18 09:44:07;;;;;;;16.35;8.82;;;;;;;28.76;79.63;101542.00;7395055;19;20015;-43
2022/06/18 09:46:39;;;;;;;20.70;9.13;;;;;;;29.12;77.52;101544.28;7398753;19;20034;-43
2022/06/18 09:49:09;;;;;;;22.42;8.45;;;;;;;29.24;72.88;101544.78;7399423;19;20474;-43
2022/06/18 09:51:45;;;;;;;12.63;7.03;;;;;;;29.45;74.16;101550.44;7399142;19;20006;-43
2022/06/18 09:54:18;;;;;;;15.45;7.75;;;;;;;29.54;72.08;101551.25;7397040;19;20018;-42
2022/06/18 09:56:51;;;;;;;10.85;7.32;;;;;;;29.44;68.84;101548.75;7399529;19;20779;-43
2022/06/18 09:59:24;;;;;;;16.00;7.03;;;;;;;29.72;69.31;101542.03;7397075;19;20015;-44
2022/06/18 10:01:55;;;;;;;12.40;7.40;;;;;;;30.12;66.64;101549.09;7398367;19;20014;-43
2022/06/18 10:07:20;;;;;;;18.00;6.65;;;;;;;30.08;67.23;101546.94;7398856;19;20022;-43
2022/06/18 10:09:53;;;;;;;11.50;5.97;;;;;;;30.13;65.37;101537.28;7397922;19;20018;-43
2022/06/18 10:12:24;;;;;;;13.80;6.45;;;;;;;29.87;66.46;101540.31;7398785;19;20492;-43
2022/06/18 10:14:56;;;;;;;12.10;5.95;;;;;;;30.03;64.84;101533.94;7394828;19;20492;-43
2022/06/18 10:17:45;;;;;;;13.80;5.78;;;;;;;30.18;61.16;101536.72;7397452;19;20018;-43
2022/06/18 10:20:21;;;;;;;13.45;6.90;;;;;;;29.97;63.29;101532.81;7397011;19;20014;-43
2022/06/18 10:23:03;;;;;;;13.25;6.28;;;;;;;29.40;63.69;101533.94;7399042;19;20317;-44
2022/06/18 10:25:41;;;;;;;32.90;8.03;;;;;;;29.89;64.72;101526.63;7397070;19;20029;-43
2022/06/18 10:28:20;;;;;;;11.57;6.00;;;;;;;30.26;62.09;101528.56;7398033;19;20086;-44
2022/06/18 10:30:56;;;;;;;14.95;6.20;;;;;;;30.43;63.01;101523.88;7398020;19;20336;-45
2022/06/18 10:33:35;;;;;;;16.23;7.00;;;;;;;30.59;60.36;101514.78;7397659;19;20094;-44
2022/06/18 10:36:15;;;;;;;30.77;7.35;;;;;;;30.65;59.56;101521.34;7393071;19;20058;-43
2022/06/18 10:39:10;;;;;;;17.08;6.25;;;;;;;30.83;59.40;101512.84;7396446;19;20048;-42
2022/06/18 10:41:52;;;;;;;12.90;6.82;;;;;;;30.57;64.13;101518.69;7396637;19;20015;-43
2022/06/18 10:44:30;;;;;;;11.55;6.93;;;;;;;30.17;64.76;101514.25;7394782;19;20019;-42
2022/06/18 10:47:06;;;;;;;13.80;7.53;;;;;;;30.56;63.27;101517.84;7396099;19;20015;-42
2022/06/18 10:49:36;;;;;;;23.80;7.47;;;;;;;30.49;67.00;101514.19;7396100;19;20021;-42
2022/06/18 10:52:07;;;;;;;11.30;7.45;;;;;;;30.52;62.48;101514.69;7396912;19;20025;-43
2022/06/18 10:54:39;;;;;;;13.20;7.30;;;;;;;30.45;63.23;101507.47;7394932;19;20108;-43
2022/06/18 10:57:09;;;;;;;12.23;6.38;;;;;;;30.99;63.29;101518.09;7397164;19;20346;-43
2022/06/18 10:59:41;;;;;;;14.50;7.20;;;;;;;31.50;63.30;101521.91;7396843;19;20010;-43
2022/06/18 11:02:19;;;;;;;13.60;7.47;;;;;;;31.27;58.12;101520.16;7397074;19;20025;-44
2022/06/18 11:04:55;;;;;;;60.70;9.57;;;;;;;30.71;61.09;101507.88;7394294;19;20022;-43
2022/06/18 11:07:27;;;;;;;20.00;7.78;;;;;;;30.79;58.98;101504.28;7396680;19;20021;-43
2022/06/18 11:10:02;;;;;;;14.00;7.60;;;;;;;31.01;56.56;101507.13;7406371;19;20010;-44
2022/06/18 11:12:33;;;;;;;13.75;6.80;;;;;;;31.52;57.10;101504.44;7405079;19;20021;-45
2022/06/18 11:15:02;;;;;;;17.45;6.88;;;;;;;31.46;57.69;101505.19;7363682;19;20021;-46
2022/06/18 11:17:36;;;;;;;15.55;7.07;;;;;;;31.97;55.85;101495.38;7404136;19;20359;-43
2022/06/18 11:20:10;;;;;;;13.15;6.60;;;;;;;31.98;53.93;101489.75;7397110;19;20019;-44
2022/06/18 11:22:40;;;;;;;10.93;6.15;;;;;;;32.54;53.71;101490.84;7398473;19;20014;-43
2022/06/18 11:25:27;;;;;;;12.52;6.72;;;;;;;32.89;50.66;101504.47;7395715;19;20021;-43
2022/06/18 11:27:59;;;;;;;19.02;6.95;;;;;;;32.94;49.09;101491.13;7396623;19;20567;-43
2022/06/18 11:30:32;;;;;;;;;;;;;;;32.49;49.75;101485.19;7395976;19;20022;-43
2022/06/18 11:33:04;;;;;;;18.10;7.60;;;;;;;32.50;47.41;101484.16;7395821;19;20143;-44
2022/06/18 11:35:35;;;;;;;15.63;6.18;;;;;;;32.97;46.69;101479.03;7395487;19;20010;-43
2022/06/18 11:38:06;;;;;;;16.17;6.20;;;;;;;33.71;45.63;101489.16;7395948;19;20025;-42
2022/06/18 11:40:39;;;;;;;13.50;5.88;;;;;;;33.95;44.46;101474.19;7394583;19;20014;-42
2022/06/18 11:43:20;;;;;;;13.23;5.82;;;;;;;33.93;41.25;101470.84;7395608;19;20118;-42
2022/06/18 11:45:56;;;;;;;14.38;5.75;;;;;;;34.42;42.25;101476.94;7396420;19;20480;-41
2022/06/18 11:48:32;;;;;;;12.95;5.90;;;;;;;35.22;38.59;101473.19;7395724;19;20011;-41
2022/06/18 11:51:07;;;;;;;15.70;5.68;;;;;;;33.45;40.81;101470.91;7395185;19;20015;-42